sensor_id;sensor_type;location;lat;lon;timestamp;pressure;altitude;pressure_sealevel;temperature;humidity
21433;BME280;18592;49.708;10.900;2023-06-19T00:00:47;98190.00;;;26.38;30.10
21433;BME280;18592;49.708;10.900;2023-06-19T00:02:48;98186.78;;;26.36;30.18
21433;BME280;18592;49.708;10.900;2023-06-19T00:04:48;98186.31;;;26.34;30.52
21433;BME280;18592;49.708;10.900;2023-06-19T00:06:48;98188.31;;;26.33;30.13
21433;BME280;18592;49.708;10.900;2023-06-19T00:08:49;98194.63;;;26.30;30.61
21433;BME280;18592;49.708;10.900;2023-06-19T00:10:49;98183.00;;;26.28;30.77
21433;BME280;18592;49.708;10.900;2023-06-19T00:12:50;98186.13;;;26.27;30.33
21433;BME280;18592;49.708;10.900;2023-06-19T00:14:55;98185.69;;;26.25;30.22
21433;BME280;18592;49.708;10.900;2023-06-19T00:16:56;98183.63;;;26.22;30.24
21433;BME280;18592;49.708;10.900;2023-06-19T00:18:57;98184.00;;;26.20;30.65
21433;BME280;18592;49.708;10.900;2023-06-19T00:20:57;98179.94;;;26.18;30.41
21433;BME280;18592;49.708;10.900;2023-06-19T00:22:59;98175.50;;;26.17;30.28
21433;BME280;18592;49.708;10.900;2023-06-19T00:25:00;98173.44;;;26.14;30.15
21433;BME280;18592;49.708;10.900;2023-06-19T00:27:01;98171.38;;;26.11;30.60
21433;BME280;18592;49.708;10.900;2023-06-19T00:29:16;98176.47;;;26.09;30.47
21433;BME280;18592;49.708;10.900;2023-06-19T00:31:17;98177.66;;;26.08;30.21
21433;BME280;18592;49.708;10.900;2023-06-19T00:33:23;98166.06;;;26.06;30.53
21433;BME280;18592;49.708;10.900;2023-06-19T00:35:26;98181.19;;;26.05;30.21
21433;BME280;18592;49.708;10.900;2023-06-19T00:37:29;98187.94;;;26.04;30.44
21433;BME280;18592;49.708;10.900;2023-06-19T00:39:33;98187.47;;;26.02;30.23
21433;BME280;18592;49.708;10.900;2023-06-19T00:41:35;98183.09;;;26.01;30.55
21433;BME280;18592;49.708;10.900;2023-06-19T00:43:36;98184.25;;;26.00;30.49
21433;BME280;18592;49.708;10.900;2023-06-19T00:45:37;98179.38;;;25.97;30.27
21433;BME280;18592;49.708;10.900;2023-06-19T00:47:37;98176.97;;;25.95;30.17
21433;BME280;18592;49.708;10.900;2023-06-19T00:49:38;98176.50;;;25.93;30.11
21433;BME280;18592;49.708;10.900;2023-06-19T00:51:39;98177.66;;;25.92;30.47
21433;BME280;18592;49.708;10.900;2023-06-19T00:53:41;98189.66;;;25.93;30.48
21433;BME280;18592;49.708;10.900;2023-06-19T00:55:42;98181.63;;;25.91;29.96
21433;BME280;18592;49.708;10.900;2023-06-19T00:57:43;98189.22;;;25.91;30.17
21433;BME280;18592;49.708;10.900;2023-06-19T00:59:44;98192.34;;;25.89;29.99
21433;BME280;18592;49.708;10.900;2023-06-19T01:01:45;98188.75;;;25.88;30.35
21433;BME280;18592;49.708;10.900;2023-06-19T01:03:49;98180.75;;;25.87;29.96
21433;BME280;18592;49.708;10.900;2023-06-19T01:05:53;98180.28;;;25.85;30.36
21433;BME280;18592;49.708;10.900;2023-06-19T01:08:03;98176.69;;;25.84;30.08
21433;BME280;18592;49.708;10.900;2023-06-19T01:10:06;98172.63;;;25.82;30.35
21433;BME280;18592;49.708;10.900;2023-06-19T01:12:20;98177.41;;;25.81;30.28
21433;BME280;18592;49.708;10.900;2023-06-19T01:14:35;98177.66;;;25.76;30.50
21433;BME280;18592;49.708;10.900;2023-06-19T01:16:38;98176.50;;;25.77;30.53
21433;BME280;18592;49.708;10.900;2023-06-19T01:18:39;98175.69;;;25.77;30.25
21433;BME280;18592;49.708;10.900;2023-06-19T01:20:44;98162.06;;;25.75;30.64
21433;BME280;18592;49.708;10.900;2023-06-19T01:22:49;98164.41;;;25.73;30.05
21433;BME280;18592;49.708;10.900;2023-06-19T01:24:50;98174.44;;;25.74;30.33
21433;BME280;18592;49.708;10.900;2023-06-19T01:26:51;98167.56;;;25.72;30.62
21433;BME280;18592;49.708;10.900;2023-06-19T01:28:59;98171.19;;;25.72;30.38
21433;BME280;18592;49.708;10.900;2023-06-19T01:31:01;98163.97;;;25.71;30.42
21433;BME280;18592;49.708;10.900;2023-06-19T01:33:10;98173.50;;;25.70;30.12
21433;BME280;18592;49.708;10.900;2023-06-19T01:35:12;98173.06;;;25.68;30.40
21433;BME280;18592;49.708;10.900;2023-06-19T01:37:19;98169.81;;;25.66;30.55
21433;BME280;18592;49.708;10.900;2023-06-19T01:39:20;98178.19;;;25.66;30.13
21433;BME280;18592;49.708;10.900;2023-06-19T01:41:22;98174.97;;;25.64;30.30
21433;BME280;18592;49.708;10.900;2023-06-19T01:43:24;98174.50;;;25.62;30.71
21433;BME280;18592;49.708;10.900;2023-06-19T01:45:28;98171.25;;;25.60;30.41
21433;BME280;18592;49.708;10.900;2023-06-19T01:47:29;98178.03;;;25.59;30.60
21433;BME280;18592;49.708;10.900;2023-06-19T01:49:29;98175.94;;;25.56;30.39
21433;BME280;18592;49.708;10.900;2023-06-19T01:51:29;98183.50;;;25.56;30.73
21433;BME280;18592;49.708;10.900;2023-06-19T01:53:31;98180.63;;;25.52;30.29
21433;BME280;18592;49.708;10.900;2023-06-19T01:55:33;98183.75;;;25.51;30.33
21433;BME280;18592;49.708;10.900;2023-06-19T01:57:33;98184.47;;;25.48;30.33
21433;BME280;18592;49.708;10.900;2023-06-19T01:59:33;98186.81;;;25.46;30.61
21433;BME280;18592;49.708;10.900;2023-06-19T02:01:34;98172.38;;;25.44;30.31
21433;BME280;18592;49.708;10.900;2023-06-19T02:03:35;98178.66;;;25.41;30.36
21433;BME280;18592;49.708;10.900;2023-06-19T02:05:36;98181.00;;;25.39;30.80
21433;BME280;18592;49.708;10.900;2023-06-19T02:07:39;98178.59;;;25.37;30.69
21433;BME280;18592;49.708;10.900;2023-06-19T02:09:42;98169.75;;;25.35;30.68
21433;BME280;18592;49.708;10.900;2023-06-19T02:11:43;98173.25;;;25.32;30.66
21433;BME280;18592;49.708;10.900;2023-06-19T02:13:43;98172.78;;;25.30;31.11
21433;BME280;18592;49.708;10.900;2023-06-19T02:15:44;98169.56;;;25.28;30.93
21433;BME280;18592;49.708;10.900;2023-06-19T02:17:44;98161.53;;;25.27;30.81
21433;BME280;18592;49.708;10.900;2023-06-19T02:19:44;98161.44;;;25.23;30.99
21433;BME280;18592;49.708;10.900;2023-06-19T02:21:45;98171.78;;;25.22;31.03
21433;BME280;18592;49.708;10.900;2023-06-19T02:23:51;98165.31;;;25.18;30.96
21433;BME280;18592;49.708;10.900;2023-06-19T02:25:51;98167.66;;;25.16;31.17
21433;BME280;18592;49.708;10.900;2023-06-19T02:28:07;98164.75;;;25.13;31.20
21433;BME280;18592;49.708;10.900;2023-06-19T02:30:07;98174.28;;;25.12;31.25
21433;BME280;18592;49.708;10.900;2023-06-19T02:32:09;98167.44;;;25.09;31.40
21433;BME280;18592;49.708;10.900;2023-06-19T02:34:09;98170.94;;;25.06;31.50
21433;BME280;18592;49.708;10.900;2023-06-19T02:36:10;98169.69;;;25.04;31.30
21433;BME280;18592;49.708;10.900;2023-06-19T02:38:13;98174.81;;;25.02;31.48
21433;BME280;18592;49.708;10.900;2023-06-19T02:40:29;98165.50;;;24.98;31.37
21433;BME280;18592;49.708;10.900;2023-06-19T02:42:32;98161.44;;;24.95;31.26
21433;BME280;18592;49.708;10.900;2023-06-19T02:44:33;98174.13;;;24.93;31.64
21433;BME280;18592;49.708;10.900;2023-06-19T02:46:33;98167.66;;;24.89;31.14
21433;BME280;18592;49.708;10.900;2023-06-19T02:48:35;98174.75;;;24.86;31.34
21433;BME280;18592;49.708;10.900;2023-06-19T02:50:35;98157.06;;;24.82;31.50
21433;BME280;18592;49.708;10.900;2023-06-19T02:52:36;98165.00;;;24.80;31.55
21433;BME280;18592;49.708;10.900;2023-06-19T02:54:43;98173.72;;;24.79;31.67
21433;BME280;18592;49.708;10.900;2023-06-19T02:56:43;98159.28;;;24.77;31.48
21433;BME280;18592;49.708;10.900;2023-06-19T02:58:58;98173.13;;;24.73;31.57
21433;BME280;18592;49.708;10.900;2023-06-19T03:00:58;98174.19;;;24.69;31.46
21433;BME280;18592;49.708;10.900;2023-06-19T03:02:58;98172.56;;;24.68;31.40
21433;BME280;18592;49.708;10.900;2023-06-19T03:04:59;98178.81;;;24.64;31.58
21433;BME280;18592;49.708;10.900;2023-06-19T03:07:10;98181.16;;;24.62;31.22
21433;BME280;18592;49.708;10.900;2023-06-19T03:09:14;98187.44;;;24.59;31.33
21433;BME280;18592;49.708;10.900;2023-06-19T03:11:16;98186.16;;;24.57;31.78
21433;BME280;18592;49.708;10.900;2023-06-19T03:13:21;98190.47;;;24.54;31.71
21433;BME280;18592;49.708;10.900;2023-06-19T03:15:22;98190.00;;;24.52;31.58
21433;BME280;18592;49.708;10.900;2023-06-19T03:17:25;98192.34;;;24.50;31.35
21433;BME280;18592;49.708;10.900;2023-06-19T03:19:43;98197.47;;;24.48;31.57
21433;BME280;18592;49.708;10.900;2023-06-19T03:21:44;98204.53;;;24.46;31.37
21433;BME280;18592;49.708;10.900;2023-06-19T03:23:48;98209.63;;;24.44;31.28
21433;BME280;18592;49.708;10.900;2023-06-19T03:25:50;98206.38;;;24.42;31.37
21433;BME280;18592;49.708;10.900;2023-06-19T03:28:03;98229.38;;;24.39;31.71
21433;BME280;18592;49.708;10.900;2023-06-19T03:30:16;98234.50;;;24.37;31.47
21433;BME280;18592;49.708;10.900;2023-06-19T03:32:22;98236.00;;;24.34;31.75
21433;BME280;18592;49.708;10.900;2023-06-19T03:34:24;98231.59;;;24.33;31.62
21433;BME280;18592;49.708;10.900;2023-06-19T03:36:26;98241.13;;;24.32;31.61
21433;BME280;18592;49.708;10.900;2023-06-19T03:38:28;98239.47;;;24.31;31.96
21433;BME280;18592;49.708;10.900;2023-06-19T03:40:28;98252.13;;;24.29;31.97
21433;BME280;18592;49.708;10.900;2023-06-19T03:42:29;98243.78;;;24.29;31.88
21433;BME280;18592;49.708;10.900;2023-06-19T03:44:37;98251.66;;;24.27;31.94
21433;BME280;18592;49.708;10.900;2023-06-19T03:46:37;98246.91;;;24.27;32.06
21433;BME280;18592;49.708;10.900;2023-06-19T03:48:38;98237.28;;;24.25;32.03
21433;BME280;18592;49.708;10.900;2023-06-19T03:50:38;98242.03;;;24.24;32.15
21433;BME280;18592;49.708;10.900;2023-06-19T03:52:41;98246.00;;;24.23;31.89
21433;BME280;18592;49.708;10.900;2023-06-19T03:54:42;98250.75;;;24.23;31.90
21433;BME280;18592;49.708;10.900;2023-06-19T03:56:42;98239.94;;;24.21;32.21
21433;BME280;18592;49.708;10.900;2023-06-19T03:58:44;98247.59;;;24.24;32.22
21433;BME280;18592;49.708;10.900;2023-06-19T04:11:37;98247.25;;;24.86;31.35
21433;BME280;18592;49.708;10.900;2023-06-19T04:13:43;98246.06;;;24.75;31.29
21433;BME280;18592;49.708;10.900;2023-06-19T04:15:44;98247.00;;;24.67;31.32
21433;BME280;18592;49.708;10.900;2023-06-19T04:17:44;98252.03;;;24.61;31.40
21433;BME280;18592;49.708;10.900;2023-06-19T04:19:45;98251.53;;;24.59;31.65
21433;BME280;18592;49.708;10.900;2023-06-19T04:21:49;98251.09;;;24.57;31.83
21433;BME280;18592;49.708;10.900;2023-06-19T04:23:49;98250.63;;;24.55;31.96
21433;BME280;18592;49.708;10.900;2023-06-19T04:25:50;98256.66;;;24.57;32.13
21433;BME280;18592;49.708;10.900;2023-06-19T04:27:51;98258.28;;;24.58;31.62
21433;BME280;18592;49.708;10.900;2023-06-19T04:29:51;98262.69;;;24.59;32.16
21433;BME280;18592;49.708;10.900;2023-06-19T04:31:53;98259.91;;;24.59;32.44
21433;BME280;18592;49.708;10.900;2023-06-19T04:33:53;98263.19;;;24.61;31.74
21433;BME280;18592;49.708;10.900;2023-06-19T04:35:56;98259.22;;;24.62;32.09
21433;BME280;18592;49.708;10.900;2023-06-19T04:37:56;98264.09;;;24.66;32.35
21433;BME280;18592;49.708;10.900;2023-06-19T04:40:01;98273.72;;;24.68;31.88
21433;BME280;18592;49.708;10.900;2023-06-19T04:42:03;98270.56;;;24.70;32.11
21433;BME280;18592;49.708;10.900;2023-06-19T04:44:05;98272.22;;;24.71;32.08
21433;BME280;18592;49.708;10.900;2023-06-19T04:46:06;98270.25;;;24.71;31.90
21433;BME280;18592;49.708;10.900;2023-06-19T04:48:06;98275.13;;;24.74;32.03
21433;BME280;18592;49.708;10.900;2023-06-19T04:50:07;98275.59;;;24.76;32.12
21433;BME280;18592;49.708;10.900;2023-06-19T04:52:08;98274.09;;;24.79;32.06
21433;BME280;18592;49.708;10.900;2023-06-19T04:54:09;98270.94;;;24.80;32.27
21433;BME280;18592;49.708;10.900;2023-06-19T04:56:09;98275.00;;;24.83;32.23
21433;BME280;18592;49.708;10.900;2023-06-19T04:58:09;98283.03;;;24.84;32.39
21433;BME280;18592;49.708;10.900;2023-06-19T05:00:10;98273.94;;;24.87;32.11
21433;BME280;18592;49.708;10.900;2023-06-19T05:02:11;98286.88;;;24.92;32.57
21433;BME280;18592;49.708;10.900;2023-06-19T05:04:11;98275.34;;;24.93;32.34
21433;BME280;18592;49.708;10.900;2023-06-19T05:06:11;98277.88;;;24.98;32.10
21433;BME280;18592;49.708;10.900;2023-06-19T05:08:12;98277.66;;;25.03;32.41
21433;BME280;18592;49.708;10.900;2023-06-19T05:10:14;98277.28;;;25.05;32.28
21433;BME280;18592;49.708;10.900;2023-06-19T05:12:14;98285.41;;;25.10;32.44
21433;BME280;18592;49.708;10.900;2023-06-19T05:14:15;98287.25;;;25.18;32.34
21433;BME280;18592;49.708;10.900;2023-06-19T05:16:15;98289.78;;;25.23;32.70
21433;BME280;18592;49.708;10.900;2023-06-19T05:18:17;98295.56;;;25.30;32.29
21433;BME280;18592;49.708;10.900;2023-06-19T05:20:23;98285.78;;;25.36;32.91
21433;BME280;18592;49.708;10.900;2023-06-19T05:22:23;98299.03;;;25.51;32.35
21433;BME280;18592;49.708;10.900;2023-06-19T05:24:24;98299.22;;;25.58;31.97
21433;BME280;18592;49.708;10.900;2023-06-19T05:26:24;98302.94;;;25.62;31.95
21433;BME280;18592;49.708;10.900;2023-06-19T05:28:26;98298.72;;;25.68;31.75
21433;BME280;18592;49.708;10.900;2023-06-19T05:30:26;98304.41;;;25.72;32.39
21433;BME280;18592;49.708;10.900;2023-06-19T05:32:27;98300.91;;;25.75;32.10
21433;BME280;18592;49.708;10.900;2023-06-19T05:34:28;98305.41;;;25.79;31.93
21433;BME280;18592;49.708;10.900;2023-06-19T05:36:28;98302.47;;;25.88;32.72
21433;BME280;18592;49.708;10.900;2023-06-19T05:38:28;98300.13;;;25.90;32.30
21433;BME280;18592;49.708;10.900;2023-06-19T05:51:11;98319.22;;;26.94;32.04
21433;BME280;18592;49.708;10.900;2023-06-19T05:53:17;98320.81;;;26.95;31.76
21433;BME280;18592;49.708;10.900;2023-06-19T05:55:18;98324.06;;;26.97;32.33
21433;BME280;18592;49.708;10.900;2023-06-19T05:57:19;98327.81;;;27.04;32.34
21433;BME280;18592;49.708;10.900;2023-06-19T05:59:21;98337.47;;;27.07;32.36
21433;BME280;18592;49.708;10.900;2023-06-19T06:01:35;98334.88;;;27.14;31.98
21433;BME280;18592;49.708;10.900;2023-06-19T06:03:35;98340.91;;;27.16;31.97
21433;BME280;18592;49.708;10.900;2023-06-19T06:05:37;98334.16;;;27.17;32.58
21433;BME280;18592;49.708;10.900;2023-06-19T06:07:44;98333.03;;;27.22;32.57
21433;BME280;18592;49.708;10.900;2023-06-19T06:09:45;98338.78;;;27.29;32.34
21433;BME280;18592;49.708;10.900;2023-06-19T06:11:45;98341.41;;;27.37;32.71
21433;BME280;18592;49.708;10.900;2023-06-19T06:13:47;98341.63;;;27.48;32.39
21433;BME280;18592;49.708;10.900;2023-06-19T06:15:47;98333.41;;;27.55;32.48
21433;BME280;18592;49.708;10.900;2023-06-19T06:17:48;98335.31;;;27.70;32.32
21433;BME280;18592;49.708;10.900;2023-06-19T06:19:48;98337.06;;;27.78;32.60
21433;BME280;18592;49.708;10.900;2023-06-19T06:21:49;98341.34;;;27.91;33.13
21433;BME280;18592;49.708;10.900;2023-06-19T06:23:50;98342.41;;;28.02;32.99
21433;BME280;18592;49.708;10.900;2023-06-19T06:25:51;98347.09;;;28.17;32.95
21433;BME280;18592;49.708;10.900;2023-06-19T06:27:51;98351.34;;;28.30;32.96
21433;BME280;18592;49.708;10.900;2023-06-19T06:29:52;98349.53;;;28.42;32.84
21433;BME280;18592;49.708;10.900;2023-06-19T06:32:02;98358.09;;;28.49;32.92
21433;BME280;18592;49.708;10.900;2023-06-19T06:34:13;98359.38;;;28.55;32.57
21433;BME280;18592;49.708;10.900;2023-06-19T06:36:15;98361.16;;;28.63;32.56
21433;BME280;18592;49.708;10.900;2023-06-19T06:38:36;98362.03;;;28.67;32.38
21433;BME280;18592;49.708;10.900;2023-06-19T06:40:36;98367.22;;;28.65;32.20
21433;BME280;18592;49.708;10.900;2023-06-19T06:42:38;98369.66;;;28.66;32.31
21433;BME280;18592;49.708;10.900;2023-06-19T06:44:38;98368.84;;;28.66;32.20
21433;BME280;18592;49.708;10.900;2023-06-19T06:46:39;98374.03;;;28.64;31.99
21433;BME280;18592;49.708;10.900;2023-06-19T06:48:49;98372.00;;;28.64;32.01
21433;BME280;18592;49.708;10.900;2023-06-19T06:50:50;98386.84;;;28.65;32.04
21433;BME280;18592;49.708;10.900;2023-06-19T06:52:50;98386.50;;;28.66;31.94
21433;BME280;18592;49.708;10.900;2023-06-19T06:54:52;98380.06;;;28.66;31.93
21433;BME280;18592;49.708;10.900;2023-06-19T06:56:52;98385.69;;;28.66;31.84
21433;BME280;18592;49.708;10.900;2023-06-19T06:58:56;98385.59;;;28.62;32.03
21433;BME280;18592;49.708;10.900;2023-06-19T07:00:56;98394.69;;;28.56;31.92
21433;BME280;18592;49.708;10.900;2023-06-19T07:02:57;98387.81;;;28.53;32.15
21433;BME280;18592;49.708;10.900;2023-06-19T07:04:57;98384.94;;;28.50;32.24
21433;BME280;18592;49.708;10.900;2023-06-19T07:07:17;98384.13;;;28.49;32.05
21433;BME280;18592;49.708;10.900;2023-06-19T07:09:18;98403.41;;;28.51;31.82
21433;BME280;18592;49.708;10.900;2023-06-19T07:11:27;98396.16;;;28.50;32.00
21433;BME280;18592;49.708;10.900;2023-06-19T07:13:29;98392.19;;;28.51;31.81
21433;BME280;18592;49.708;10.900;2023-06-19T07:15:41;98396.13;;;28.46;32.13
21433;BME280;18592;49.708;10.900;2023-06-19T07:17:57;98403.28;;;28.44;32.35
21433;BME280;18592;49.708;10.900;2023-06-19T07:19:58;98397.22;;;28.42;32.45
21433;BME280;18592;49.708;10.900;2023-06-19T07:22:00;98393.63;;;28.41;32.39
21433;BME280;18592;49.708;10.900;2023-06-19T07:24:08;98392.41;;;28.42;32.42
21433;BME280;18592;49.708;10.900;2023-06-19T07:26:19;98404.44;;;28.43;31.97
21433;BME280;18592;49.708;10.900;2023-06-19T07:28:24;98394.88;;;28.44;32.55
21433;BME280;18592;49.708;10.900;2023-06-19T07:30:34;98403.28;;;28.44;33.00
21433;BME280;18592;49.708;10.900;2023-06-19T07:32:37;98397.66;;;28.44;32.60
21433;BME280;18592;49.708;10.900;2023-06-19T07:34:46;98407.25;;;28.43;33.04
21433;BME280;18592;49.708;10.900;2023-06-19T07:36:48;98399.69;;;28.47;33.03
21433;BME280;18592;49.708;10.900;2023-06-19T07:38:51;98405.41;;;28.50;33.08
21433;BME280;18592;49.708;10.900;2023-06-19T07:40:53;98401.41;;;28.51;33.17
21433;BME280;18592;49.708;10.900;2023-06-19T07:42:54;98405.91;;;28.56;33.24
21433;BME280;18592;49.708;10.900;2023-06-19T07:44:55;98404.41;;;28.62;33.12
21433;BME280;18592;49.708;10.900;2023-06-19T07:46:56;98395.69;;;28.67;33.53
21433;BME280;18592;49.708;10.900;2023-06-19T07:48:58;98402.31;;;28.78;33.26
21433;BME280;18592;49.708;10.900;2023-06-19T07:50:59;98401.28;;;28.89;33.25
21433;BME280;18592;49.708;10.900;2023-06-19T07:53:01;98398.13;;;28.91;33.59
21433;BME280;18592;49.708;10.900;2023-06-19T07:55:13;98399.06;;;28.99;33.57
21433;BME280;18592;49.708;10.900;2023-06-19T07:57:18;98398.78;;;29.07;33.82
21433;BME280;18592;49.708;10.900;2023-06-19T07:59:20;98394.97;;;29.19;33.38
21433;BME280;18592;49.708;10.900;2023-06-19T08:01:23;98405.59;;;29.29;33.64
21433;BME280;18592;49.708;10.900;2023-06-19T08:03:32;98405.75;;;29.39;33.48
21433;BME280;18592;49.708;10.900;2023-06-19T08:05:34;98409.09;;;29.48;33.45
21433;BME280;18592;49.708;10.900;2023-06-19T08:07:35;98406.00;;;29.57;33.53
21433;BME280;18592;49.708;10.900;2023-06-19T08:09:37;98405.22;;;29.60;33.71
21433;BME280;18592;49.708;10.900;2023-06-19T08:11:38;98402.91;;;29.66;33.85
21433;BME280;18592;49.708;10.900;2023-06-19T08:13:40;98403.81;;;29.73;33.79
21433;BME280;18592;49.708;10.900;2023-06-19T08:15:41;98404.38;;;29.82;33.72
21433;BME280;18592;49.708;10.900;2023-06-19T08:17:44;98405.28;;;29.90;33.68
21433;BME280;18592;49.708;10.900;2023-06-19T08:19:47;98412.97;;;29.96;33.47
21433;BME280;18592;49.708;10.900;2023-06-19T08:21:51;98408.25;;;30.04;33.46
21433;BME280;18592;49.708;10.900;2023-06-19T08:23:53;98414.31;;;30.06;33.22
21433;BME280;18592;49.708;10.900;2023-06-19T08:26:01;98409.88;;;30.05;33.66
21433;BME280;18592;49.708;10.900;2023-06-19T08:28:03;98422.75;;;30.06;33.65
21433;BME280;18592;49.708;10.900;2023-06-19T08:30:12;98417.97;;;30.10;33.66
21433;BME280;18592;49.708;10.900;2023-06-19T08:32:28;98404.28;;;30.08;33.01
21433;BME280;18592;49.708;10.900;2023-06-19T08:34:31;98411.94;;;30.08;33.18
21433;BME280;18592;49.708;10.900;2023-06-19T08:36:50;98421.22;;;30.12;32.95
21433;BME280;18592;49.708;10.900;2023-06-19T08:38:54;98414.84;;;30.15;33.12
21433;BME280;18592;49.708;10.900;2023-06-19T08:40:54;98414.84;;;30.15;33.46
21433;BME280;18592;49.708;10.900;2023-06-19T08:42:56;98414.84;;;30.18;33.47
21433;BME280;18592;49.708;10.900;2023-06-19T08:44:58;98410.81;;;30.16;33.18
21433;BME280;18592;49.708;10.900;2023-06-19T08:47:16;98406.41;;;30.18;33.20
21433;BME280;18592;49.708;10.900;2023-06-19T08:49:18;98416.44;;;30.16;33.58
21433;BME280;18592;49.708;10.900;2023-06-19T08:51:20;98422.06;;;30.16;33.22
21433;BME280;18592;49.708;10.900;2023-06-19T08:53:49;98427.25;;;30.14;33.23
21433;BME280;18592;49.708;10.900;2023-06-19T08:55:52;98427.69;;;30.16;33.36
21433;BME280;18592;49.708;10.900;2023-06-19T08:57:57;98432.06;;;30.13;33.95
21433;BME280;18592;49.708;10.900;2023-06-19T08:59:59;98436.09;;;30.12;33.83
21433;BME280;18592;49.708;10.900;2023-06-19T09:02:03;98431.66;;;30.11;33.89
21433;BME280;18592;49.708;10.900;2023-06-19T09:04:12;98434.84;;;30.10;33.53
21433;BME280;18592;49.708;10.900;2023-06-19T09:06:16;98430.47;;;30.12;33.57
21433;BME280;18592;49.708;10.900;2023-06-19T09:08:28;98434.88;;;30.13;33.09
21433;BME280;18592;49.708;10.900;2023-06-19T09:10:31;98430.47;;;30.12;33.24
21433;BME280;18592;49.708;10.900;2023-06-19T09:12:42;98434.88;;;30.13;33.53
21433;BME280;18592;49.708;10.900;2023-06-19T09:14:51;98434.03;;;30.09;33.30
21433;BME280;18592;49.708;10.900;2023-06-19T09:17:10;98437.63;;;30.06;33.46
21433;BME280;18592;49.708;10.900;2023-06-19T09:19:20;98430.75;;;30.04;33.54
21433;BME280;18592;49.708;10.900;2023-06-19T09:21:38;98432.75;;;30.03;33.78
21433;BME280;18592;49.708;10.900;2023-06-19T09:23:41;98426.75;;;30.05;33.60
21433;BME280;18592;49.708;10.900;2023-06-19T09:25:57;98429.94;;;30.03;33.60
21433;BME280;18592;49.708;10.900;2023-06-19T09:28:02;98426.75;;;30.05;33.37
21433;BME280;18592;49.708;10.900;2023-06-19T09:30:05;98429.50;;;30.01;34.09
21433;BME280;18592;49.708;10.900;2023-06-19T09:34:37;98437.94;;;30.01;33.82
21433;BME280;18592;49.708;10.900;2023-06-19T09:36:39;98447.59;;;30.00;33.90
21433;BME280;18592;49.708;10.900;2023-06-19T09:38:43;98443.53;;;29.98;34.58
21433;BME280;18592;49.708;10.900;2023-06-19T09:40:47;98445.91;;;29.96;34.31
21433;BME280;18592;49.708;10.900;2023-06-19T09:42:52;98450.28;;;29.93;34.44
21433;BME280;18592;49.708;10.900;2023-06-19T09:45:03;98451.50;;;29.92;34.27
21433;BME280;18592;49.708;10.900;2023-06-19T09:47:14;98448.63;;;29.89;33.96
21433;BME280;18592;49.708;10.900;2023-06-19T09:49:21;98453.81;;;29.87;34.33
21433;BME280;18592;49.708;10.900;2023-06-19T09:51:31;98450.59;;;29.85;34.23
21433;BME280;18592;49.708;10.900;2023-06-19T09:53:35;98457.81;;;29.86;34.14
21433;BME280;18592;49.708;10.900;2023-06-19T09:55:39;98448.97;;;29.84;34.36
21433;BME280;18592;49.708;10.900;2023-06-19T09:57:43;98456.22;;;29.85;34.37
21433;BME280;18592;49.708;10.900;2023-06-19T10:00:02;98461.84;;;29.85;34.96
21433;BME280;18592;49.708;10.900;2023-06-19T10:02:25;98452.66;;;29.88;34.83
21433;BME280;18592;49.708;10.900;2023-06-19T10:04:52;98453.81;;;29.87;35.23
21433;BME280;18592;49.708;10.900;2023-06-19T10:06:54;98455.06;;;29.89;35.16
21433;BME280;18592;49.708;10.900;2023-06-19T10:09:08;98445.47;;;29.94;35.11
21433;BME280;18592;49.708;10.900;2023-06-19T10:11:10;98450.78;;;29.99;34.88
21433;BME280;18592;49.708;10.900;2023-06-19T10:13:14;98442.06;;;30.07;34.63
21433;BME280;18592;49.708;10.900;2023-06-19T10:15:18;98437.28;;;30.11;35.27
21433;BME280;18592;49.708;10.900;2023-06-19T10:17:19;98439.41;;;30.22;35.15
21433;BME280;18592;49.708;10.900;2023-06-19T10:19:21;98440.69;;;30.28;35.35
21433;BME280;18592;49.708;10.900;2023-06-19T10:21:23;98435.19;;;30.35;35.13
21433;BME280;18592;49.708;10.900;2023-06-19T10:23:36;98428.47;;;30.46;35.39
21433;BME280;18592;49.708;10.900;2023-06-19T10:25:49;98435.03;;;30.57;35.12
21433;BME280;18592;49.708;10.900;2023-06-19T10:28:24;98435.97;;;30.72;35.97
21433;BME280;18592;49.708;10.900;2023-06-19T10:30:26;98445.38;;;30.87;35.88
21433;BME280;18592;49.708;10.900;2023-06-19T10:32:28;98446.38;;;31.05;35.86
21433;BME280;18592;49.708;10.900;2023-06-19T10:34:34;98441.69;;;31.23;35.71
21433;BME280;18592;49.708;10.900;2023-06-19T10:36:35;98438.63;;;31.42;35.88
21433;BME280;18592;49.708;10.900;2023-06-19T10:38:50;98436.38;;;31.62;35.82
21433;BME280;18592;49.708;10.900;2023-06-19T10:41:00;98438.13;;;31.84;36.05
21433;BME280;18592;49.708;10.900;2023-06-19T10:43:03;98435.44;;;32.05;35.82
21433;BME280;18592;49.708;10.900;2023-06-19T10:45:14;98427.84;;;32.27;35.53
21433;BME280;18592;49.708;10.900;2023-06-19T10:47:30;98427.94;;;32.48;35.65
21433;BME280;18592;49.708;10.900;2023-06-19T10:49:33;98429.63;;;32.70;35.72
21433;BME280;18592;49.708;10.900;2023-06-19T10:51:37;98417.16;;;32.89;35.82
21433;BME280;18592;49.708;10.900;2023-06-19T10:53:49;98419.19;;;33.09;35.57
21433;BME280;18592;49.708;10.900;2023-06-19T10:55:54;98408.31;;;33.29;35.18
21433;BME280;18592;49.708;10.900;2023-06-19T10:58:01;98412.31;;;33.46;35.38
21433;BME280;18592;49.708;10.900;2023-06-19T11:00:30;98416.34;;;33.66;35.10
21433;BME280;18592;49.708;10.900;2023-06-19T11:02:45;98405.38;;;33.85;34.83
21433;BME280;18592;49.708;10.900;2023-06-19T11:04:54;98402.47;;;34.03;34.84
21433;BME280;18592;49.708;10.900;2023-06-19T11:06:56;98406.88;;;34.18;34.58
21433;BME280;18592;49.708;10.900;2023-06-19T11:09:05;98403.56;;;34.34;34.55
21433;BME280;18592;49.708;10.900;2023-06-19T11:11:08;98400.25;;;34.49;34.69
21433;BME280;18592;49.708;10.900;2023-06-19T11:13:24;98394.94;;;34.66;34.17